Time;durP1;ratioP1;P1;durP2;ratioP2;P2;SDS_P1;SDS_P2;PMS_P1;PMS_P2;Temp;Humidity;BMP_temperature;BMP_pressure;BME280_temperature;BME280_humidity;BME280_pressure;Samples;Min_cycle;Max_cycle;Signal;HPM_P1;HPM_P2
2023/08/16 00:00:45;;;;;;;;;;;20.40;68.10;;;;;;5095763;28;19919;-28
2023/08/16 00:03:10;;;;;;;;;;;20.40;68.20;;;;;;5095771;28;19924;-30
2023/08/16 00:05:36;;;;;;;;;;;20.30;68.30;;;;;;5094239;28;19920;-28
2023/08/16 00:08:01;;;;;;;;;;;20.30;68.40;;;;;;5095684;28;20007;-29
2023/08/16 00:10:27;;;;;;;;;;;20.20;68.40;;;;;;5095666;28;20287;-29
2023/08/16 00:12:52;;;;;;;;;;;20.20;68.50;;;;;;5095588;28;20393;-37
2023/08/16 00:15:18;;;;;;;;;;;20.10;68.50;;;;;;5095564;28;20318;-27
2023/08/16 00:17:43;;;;;;;;;;;20.10;68.50;;;;;;5095452;28;19914;-27
2023/08/16 00:20:10;;;;;;;;;;;20.10;68.60;;;;;;5093843;28;19916;-28
2023/08/16 00:22:35;;;;;;;;;;;20.10;68.60;;;;;;5095512;28;19912;-28
2023/08/16 00:25:01;;;;;;;;;;;20.10;68.60;;;;;;5095323;28;20261;-30
2023/08/16 00:27:26;;;;;;;;;;;20.10;68.60;;;;;;5095256;28;19938;-28
2023/08/16 00:29:52;;;;;;;;;;;20.10;68.50;;;;;;5095186;28;19908;-32
2023/08/16 00:32:17;;;;;;;;;;;20.10;68.50;;;;;;5095182;28;19998;-30
2023/08/16 00:34:43;;;;;;;;;;;20.10;68.50;;;;;;5095477;28;19912;-28
2023/08/16 00:37:09;;;;;;;;;;;20.10;68.40;;;;;;5093720;28;20404;-34
2023/08/16 00:39:34;;;;;;;;;;;20.10;68.30;;;;;;5095152;28;19931;-28
2023/08/16 00:42:00;;;;;;;;;;;20.10;68.40;;;;;;5094861;28;19912;-27
2023/08/16 00:44:26;;;;;;;;;;;20.00;68.40;;;;;;5094432;28;19912;-27
2023/08/16 00:46:51;;;;;;;;;;;19.90;68.60;;;;;;5094748;28;19908;-30
2023/08/16 00:49:17;;;;;;;;;;;19.90;68.70;;;;;;5094818;28;20420;-29
2023/08/16 00:51:43;;;;;;;;;;;19.80;68.80;;;;;;5094936;28;19912;-29
2023/08/16 00:54:08;;;;;;;;;;;19.70;69.00;;;;;;5094917;28;19908;-28
2023/08/16 00:56:34;;;;;;;;;;;19.70;69.10;;;;;;5093313;28;19909;-30
2023/08/16 00:59:00;;;;;;;;;;;19.60;69.20;;;;;;5095143;28;19955;-30
2023/08/16 01:01:25;;;;;;;;;;;19.60;69.40;;;;;;5094348;28;19956;-28
2023/08/16 01:03:51;;;;;;;;;;;19.50;69.60;;;;;;5094321;28;19934;-29
2023/08/16 01:06:17;;;;;;;;;;;19.50;69.80;;;;;;5094572;28;19958;-29
2023/08/16 01:08:42;;;;;;;;;;;19.50;69.80;;;;;;5094985;28;19951;-29
2023/08/16 01:11:27;;;;;;;;;;;19.40;69.90;;;;;;5094651;28;20288;-29
2023/08/16 01:13:58;;;;;;;;;;;19.40;70.00;;;;;;5094431;28;19957;-28
2023/08/16 01:16:25;;;;;;;;;;;19.40;70.10;;;;;;5094618;28;20282;-28
2023/08/16 01:18:51;;;;;;;;;;;19.40;70.10;;;;;;5094481;28;19952;-33
2023/08/16 01:21:17;;;;;;;;;;;19.40;70.20;;;;;;5094219;28;19942;-35
2023/08/16 01:23:57;;;;;;;;;;;19.40;70.10;;;;;;5094447;28;19916;-28
2023/08/16 01:26:24;;;;;;;;;;;19.40;70.30;;;;;;5094175;28;20387;-38
2023/08/16 01:28:51;;;;;;;;;;;19.40;70.40;;;;;;5094136;28;19912;-28
2023/08/16 01:31:17;;;;;;;;;;;19.40;70.50;;;;;;5094068;28;19938;-26
2023/08/16 01:33:42;;;;;;;;;;;19.40;70.60;;;;;;5094138;28;20052;-27
2023/08/16 01:36:08;;;;;;;;;;;19.40;70.50;;;;;;5093861;28;19919;-32
2023/08/16 01:38:33;;;;;;;;;;;19.30;70.60;;;;;;5093894;28;19920;-29
2023/08/16 01:40:59;;;;;;;;;;;19.20;70.60;;;;;;5093844;28;19923;-28
2023/08/16 01:43:25;;;;;;;;;;;19.30;70.80;;;;;;5094116;28;20556;-29
2023/08/16 01:45:51;;;;;;;;;;;19.20;70.80;;;;;;5093834;28;20382;-27
2023/08/16 01:48:17;;;;;;;;;;;19.20;70.80;;;;;;5093602;28;19920;-35
2023/08/16 01:50:43;;;;;;;;;;;19.20;70.70;;;;;;5093652;28;19916;-33
2023/08/16 01:53:08;;;;;;;;;;;19.30;70.70;;;;;;5093623;28;20495;-31
2023/08/16 01:55:34;;;;;;;;;;;19.30;70.60;;;;;;5093478;28;19957;-31
2023/08/16 01:58:00;;;;;;;;;;;19.30;70.60;;;;;;5092663;28;19912;-31
2023/08/16 02:00:25;;;;;;;;;;;19.30;70.50;;;;;;5093020;28;19963;-31
2023/08/16 02:02:51;;;;;;;;;;;19.30;70.60;;;;;;5093098;28;19997;-27
2023/08/16 02:05:16;;;;;;;;;;;19.30;70.70;;;;;;5093181;28;19931;-33
2023/08/16 02:07:42;;;;;;;;;;;19.30;70.70;;;;;;5093513;28;19912;-37
2023/08/16 02:10:07;;;;;;;;;;;19.30;70.70;;;;;;5093209;28;19912;-32
2023/08/16 02:12:33;;;;;;;;;;;19.20;70.80;;;;;;5093297;28;20006;-31
2023/08/16 02:14:58;;;;;;;;;;;19.20;70.90;;;;;;5093298;28;19958;-25
2023/08/16 02:17:24;;;;;;;;;;;19.20;70.90;;;;;;5093243;28;19912;-26
2023/08/16 02:19:49;;;;;;;;;;;19.20;71.00;;;;;;5092986;28;19912;-30
2023/08/16 02:22:15;;;;;;;;;;;19.20;71.20;;;;;;5093394;28;19912;-26
2023/08/16 02:24:40;;;;;;;;;;;19.10;71.30;;;;;;5093151;28;20386;-28
2023/08/16 02:27:06;;;;;;;;;;;19.10;71.50;;;;;;5093000;28;19962;-27
2023/08/16 02:29:31;;;;;;;;;;;19.10;71.50;;;;;;5091684;28;19918;-30
2023/08/16 02:31:57;;;;;;;;;;;19.10;71.60;;;;;;5093080;28;20282;-29
2023/08/16 02:34:22;;;;;;;;;;;19.00;72.00;;;;;;5092989;28;19919;-28
2023/08/16 02:36:48;;;;;;;;;;;19.00;72.20;;;;;;5093140;28;20211;-31
2023/08/16 02:39:13;;;;;;;;;;;18.90;72.10;;;;;;5091673;28;20014;-27
2023/08/16 02:41:39;;;;;;;;;;;18.90;72.20;;;;;;5092743;28;19922;-35
2023/08/16 02:44:04;;;;;;;;;;;18.90;72.20;;;;;;5092899;28;19912;-31
2023/08/16 02:46:30;;;;;;;;;;;18.80;72.20;;;;;;5092546;28;19960;-36
2023/08/16 02:48:55;;;;;;;;;;;18.90;72.20;;;;;;5092557;28;19912;-30
2023/08/16 02:51:21;;;;;;;;;;;18.90;72.10;;;;;;5092452;28;19912;-29
2023/08/16 02:53:46;;;;;;;;;;;19.00;72.00;;;;;;5092622;28;19912;-35
2023/08/16 02:56:12;;;;;;;;;;;19.00;71.90;;;;;;5092471;28;19973;-31
2023/08/16 02:58:38;;;;;;;;;;;19.00;71.80;;;;;;5092523;28;19947;-29
2023/08/16 03:01:03;;;;;;;;;;;19.10;71.80;;;;;;5092620;28;19920;-32
2023/08/16 03:03:29;;;;;;;;;;;19.10;71.70;;;;;;5091295;28;20014;-31
2023/08/16 03:05:54;;;;;;;;;;;19.20;71.70;;;;;;5092524;28;19947;-32
2023/08/16 03:08:20;;;;;;;;;;;19.20;71.60;;;;;;5092328;28;19944;-26
2023/08/16 03:10:45;;;;;;;;;;;19.20;71.60;;;;;;5092392;28;19916;-29
2023/08/16 03:13:11;;;;;;;;;;;19.20;71.50;;;;;;5092317;28;19912;-29
2023/08/16 03:15:36;;;;;;;;;;;19.30;71.50;;;;;;5092214;28;19923;-30
2023/08/16 03:18:02;;;;;;;;;;;19.30;71.50;;;;;;5092601;28;19919;-29
2023/08/16 03:20:28;;;;;;;;;;;19.20;71.40;;;;;;5092111;28;20036;-28
2023/08/16 03:22:53;;;;;;;;;;;19.30;71.50;;;;;;5092333;28;19913;-29
2023/08/16 03:25:19;;;;;;;;;;;19.30;71.50;;;;;;5091920;28;20434;-29
2023/08/16 03:27:44;;;;;;;;;;;19.20;71.50;;;;;;5092216;28;20379;-31
2023/08/16 03:30:10;;;;;;;;;;;19.20;71.50;;;;;;5092142;28;19912;-30
2023/08/16 03:32:35;;;;;;;;;;;19.20;71.60;;;;;;5092122;28;20026;-29
2023/08/16 03:35:01;;;;;;;;;;;19.20;71.90;;;;;;5091895;28;19991;-26
2023/08/16 03:37:27;;;;;;;;;;;19.10;71.90;;;;;;5092029;28;20364;-30
2023/08/16 03:39:52;;;;;;;;;;;19.10;72.00;;;;;;5091758;28;19913;-30
2023/08/16 03:42:18;;;;;;;;;;;19.00;72.00;;;;;;5091964;28;19912;-31
2023/08/16 03:44:43;;;;;;;;;;;19.00;72.10;;;;;;5092032;28;19959;-30
2023/08/16 03:47:09;;;;;;;;;;;19.00;72.20;;;;;;5091835;28;19912;-30
2023/08/16 03:49:35;;;;;;;;;;;19.00;72.30;;;;;;5091657;28;19912;-28
2023/08/16 03:52:00;;;;;;;;;;;19.00;72.50;;;;;;5090557;28;20011;-33
2023/08/16 03:54:26;;;;;;;;;;;18.90;72.60;;;;;;5091874;28;20320;-31
2023/08/16 03:56:51;;;;;;;;;;;18.90;72.80;;;;;;5091567;28;19961;-26
2023/08/16 03:59:17;;;;;;;;;;;18.80;73.10;;;;;;5091906;28;19947;-28
2023/08/16 04:01:43;;;;;;;;;;;18.80;73.10;;;;;;5091711;28;20003;-25
2023/08/16 04:04:08;;;;;;;;;;;18.70;73.00;;;;;;5091663;28;19923;-31
2023/08/16 04:06:34;;;;;;;;;;;18.70;73.20;;;;;;5090270;28;20291;-37
2023/08/16 04:08:59;;;;;;;;;;;18.70;73.20;;;;;;5091691;28;20265;-28
2023/08/16 04:11:25;;;;;;;;;;;18.60;73.20;;;;;;5092001;28;19912;-28
2023/08/16 04:13:50;;;;;;;;;;;18.60;73.10;;;;;;5091679;28;20375;-26
2023/08/16 04:16:16;;;;;;;;;;;18.60;73.20;;;;;;5091901;28;19951;-30
2023/08/16 04:18:41;;;;;;;;;;;18.60;73.30;;;;;;5090517;28;19954;-27
2023/08/16 04:21:07;;;;;;;;;;;18.60;73.30;;;;;;5094149;28;20372;-28
2023/08/16 04:23:32;;;;;;;;;;;18.60;73.20;;;;;;5095436;28;19912;-28
2023/08/16 04:25:58;;;;;;;;;;;18.60;73.10;;;;;;5095351;28;19912;-28
2023/08/16 04:28:23;;;;;;;;;;;18.70;73.20;;;;;;5095296;28;20007;-26
2023/08/16 04:30:49;;;;;;;;;;;18.60;73.20;;;;;;5095351;28;19912;-28
2023/08/16 04:33:14;;;;;;;;;;;18.60;73.60;;;;;;5095318;28;19912;-27
2023/08/16 04:35:40;;;;;;;;;;;18.50;73.80;;;;;;5095173;28;20304;-26
2023/08/16 04:38:05;;;;;;;;;;;18.50;74.10;;;;;;5095515;28;19912;-29
2023/08/16 04:40:31;;;;;;;;;;;18.40;74.30;;;;;;5095154;28;19956;-28
2023/08/16 04:42:56;;;;;;;;;;;18.40;74.50;;;;;;5095465;28;20235;-27
2023/08/16 04:45:22;;;;;;;;;;;18.30;74.60;;;;;;5094843;28;19912;-29
2023/08/16 04:47:47;;;;;;;;;;;18.30;74.70;;;;;;5094798;28;19912;-30
2023/08/16 04:50:13;;;;;;;;;;;18.30;74.70;;;;;;5094901;28;20394;-27
2023/08/16 04:52:38;;;;;;;;;;;18.30;74.80;;;;;;5094888;28;19913;-30
2023/08/16 04:55:04;;;;;;;;;;;18.30;74.90;;;;;;5094704;28;19912;-29
2023/08/16 04:57:30;;;;;;;;;;;18.20;74.90;;;;;;5094818;28;20371;-28
2023/08/16 04:59:55;;;;;;;;;;;18.20;75.00;;;;;;5094795;28;20124;-29
2023/08/16 05:02:21;;;;;;;;;;;18.20;75.10;;;;;;5094664;28;20336;-30
2023/08/16 05:04:46;;;;;;;;;;;18.20;75.30;;;;;;5094516;28;20314;-26
2023/08/16 05:07:12;;;;;;;;;;;18.20;75.80;;;;;;5094513;28;19912;-36
2023/08/16 05:09:37;;;;;;;;;;;18.20;75.10;;;;;;5094830;28;20352;-28
2023/08/16 05:12:03;;;;;;;;;;;18.20;74.90;;;;;;5094527;28;19912;-27
2023/08/16 05:14:28;;;;;;;;;;;18.20;74.90;;;;;;5094414;28;20318;-28
2023/08/16 05:16:54;;;;;;;;;;;18.20;74.90;;;;;;5094066;28;19980;-30
2023/08/16 05:19:19;;;;;;;;;;;18.20;75.00;;;;;;5092972;28;19923;-29
2023/08/16 05:21:45;;;;;;;;;;;18.20;75.30;;;;;;5094208;28;20364;-30
2023/08/16 05:24:11;;;;;;;;;;;18.20;75.50;;;;;;5094273;28;19912;-29
2023/08/16 05:26:36;;;;;;;;;;;18.20;75.40;;;;;;5094184;28;20046;-27
2023/08/16 05:29:02;;;;;;;;;;;18.20;75.50;;;;;;5094204;28;19912;-28
2023/08/16 05:31:27;;;;;;;;;;;18.20;75.70;;;;;;5093987;28;20318;-28
2023/08/16 05:33:53;;;;;;;;;;;18.20;75.80;;;;;;5094103;28;20261;-27
2023/08/16 05:36:18;;;;;;;;;;;18.20;75.70;;;;;;5093862;28;20306;-28
2023/08/16 05:38:44;;;;;;;;;;;18.30;75.50;;;;;;5094013;28;20276;-28
2023/08/16 05:41:09;;;;;;;;;;;18.30;75.30;;;;;;5093801;28;20011;-28
2023/08/16 05:43:35;;;;;;;;;;;18.30;75.20;;;;;;5092528;28;19912;-28
2023/08/16 05:46:00;;;;;;;;;;;18.40;75.30;;;;;;5093655;28;20402;-30
2023/08/16 05:48:26;;;;;;;;;;;18.40;75.50;;;;;;5093687;28;19916;-27
2023/08/16 05:50:51;;;;;;;;;;;18.40;76.00;;;;;;5093770;28;19912;-30
2023/08/16 05:53:17;;;;;;;;;;;18.40;75.40;;;;;;5093827;28;19919;-28
2023/08/16 05:55:42;;;;;;;;;;;18.50;75.50;;;;;;5093388;28;19937;-29
2023/08/16 05:58:08;;;;;;;;;;;18.50;75.50;;;;;;5093655;28;19916;-27
2023/08/16 06:00:33;;;;;;;;;;;18.60;75.50;;;;;;5093457;28;19970;-30
2023/08/16 06:02:59;;;;;;;;;;;18.60;75.80;;;;;;5093484;28;19991;-31
2023/08/16 06:05:25;;;;;;;;;;;18.60;75.70;;;;;;5093209;28;19985;-28
2023/08/16 06:07:50;;;;;;;;;;;18.60;75.80;;;;;;5093463;28;19959;-27
2023/08/16 06:10:16;;;;;;;;;;;18.60;75.80;;;;;;5093260;28;19919;-25
2023/08/16 06:12:41;;;;;;;;;;;18.70;76.00;;;;;;5093375;28;19919;-29
2023/08/16 06:15:11;;;;;;;;;;;18.70;76.00;;;;;;5093409;28;19912;-28
2023/08/16 06:17:40;;;;;;;;;;;18.70;75.80;;;;;;5093479;28;19969;-27
2023/08/16 06:20:07;;;;;;;;;;;18.80;75.90;;;;;;5093604;28;19912;-27
2023/08/16 06:22:33;;;;;;;;;;;18.80;75.70;;;;;;5093067;28;19920;-29
2023/08/16 06:24:59;;;;;;;;;;;18.80;75.70;;;;;;5093064;28;20415;-26
2023/08/16 06:27:25;;;;;;;;;;;18.90;75.70;;;;;;5092967;28;19919;-28
2023/08/16 06:29:50;;;;;;;;;;;18.90;75.60;;;;;;5093037;28;19919;-29
2023/08/16 06:32:16;;;;;;;;;;;19.00;75.60;;;;;;5092858;28;19916;-27
2023/08/16 06:34:41;;;;;;;;;;;19.00;75.90;;;;;;5093092;28;19919;-27
2023/08/16 06:37:07;;;;;;;;;;;19.10;75.60;;;;;;5092660;28;19959;-26
2023/08/16 06:39:33;;;;;;;;;;;19.20;75.40;;;;;;5092855;28;19912;-28
2023/08/16 06:41:58;;;;;;;;;;;19.20;75.30;;;;;;5092206;28;19954;-27
2023/08/16 06:44:24;;;;;;;;;;;19.30;75.30;;;;;;5092479;28;19955;-27
2023/08/16 06:46:50;;;;;;;;;;;19.30;75.10;;;;;;5092581;28;19915;-30
2023/08/16 06:49:15;;;;;;;;;;;19.40;75.00;;;;;;5092390;28;19908;-27
2023/08/16 06:51:41;;;;;;;;;;;19.40;75.00;;;;;;5092483;28;19982;-28
2023/08/16 06:54:06;;;;;;;;;;;19.50;75.00;;;;;;5092505;28;19912;-27
2023/08/16 06:56:32;;;;;;;;;;;19.60;75.00;;;;;;5092597;28;19911;-29
2023/08/16 06:58:57;;;;;;;;;;;19.60;75.00;;;;;;5090600;28;20003;-27
2023/08/16 07:01:23;;;;;;;;;;;19.70;75.00;;;;;;5092669;28;19916;-29
2023/08/16 07:03:49;;;;;;;;;;;19.70;74.90;;;;;;5092499;28;19908;-28
2023/08/16 07:06:15;;;;;;;;;;;19.70;75.00;;;;;;5092483;28;19915;-26
2023/08/16 07:08:40;;;;;;;;;;;19.70;74.70;;;;;;5092268;28;20371;-28
2023/08/16 07:11:06;;;;;;;;;;;19.80;74.60;;;;;;5092540;28;20022;-28
2023/08/16 07:13:32;;;;;;;;;;;20.00;74.50;;;;;;5092181;28;19908;-27
2023/08/16 07:15:57;;;;;;;;;;;20.00;74.30;;;;;;5092091;28;19914;-29
2023/08/16 07:18:23;;;;;;;;;;;20.10;74.20;;;;;;5092269;28;19908;-29
2023/08/16 07:20:49;;;;;;;;;;;20.10;74.20;;;;;;5092179;28;19969;-27
2023/08/16 07:23:15;;;;;;;;;;;20.10;74.00;;;;;;5092326;28;20346;-32
2023/08/16 07:25:40;;;;;;;;;;;20.20;74.00;;;;;;5091928;28;19931;-28
2023/08/16 07:28:06;;;;;;;;;;;20.30;73.90;;;;;;5090778;28;19930;-27
2023/08/16 07:30:32;;;;;;;;;;;20.30;73.70;;;;;;5091895;28;19947;-32
2023/08/16 07:32:57;;;;;;;;;;;20.50;73.60;;;;;;5091950;28;19990;-29
2023/08/16 07:35:23;;;;;;;;;;;20.50;73.40;;;;;;5091879;28;19908;-28
2023/08/16 07:37:48;;;;;;;;;;;20.50;73.30;;;;;;5091789;28;19912;-28
2023/08/16 07:40:14;;;;;;;;;;;20.50;73.20;;;;;;5092113;28;19914;-28
2023/08/16 07:42:39;;;;;;;;;;;20.50;73.20;;;;;;5091747;28;20376;-28
2023/08/16 07:45:05;;;;;;;;;;;20.50;73.30;;;;;;5091816;28;19916;-30
2023/08/16 07:47:30;;;;;;;;;;;20.40;73.30;;;;;;5091682;28;20367;-29
2023/08/16 07:49:56;;;;;;;;;;;20.30;73.40;;;;;;5091899;28;19912;-28
2023/08/16 07:52:21;;;;;;;;;;;20.30;73.40;;;;;;5092112;28;19908;-28
2023/08/16 07:54:47;;;;;;;;;;;20.30;73.50;;;;;;5092431;28;20002;-28
2023/08/16 07:57:13;;;;;;;;;;;20.20;73.50;;;;;;5095923;28;19908;-28
2023/08/16 07:59:39;;;;;;;;;;;20.20;73.70;;;;;;5095953;28;20022;-29
2023/08/16 08:02:06;;;;;;;;;;;20.20;73.70;;;;;;5096136;28;19912;-31
2023/08/16 08:04:32;;;;;;;;;;;20.10;73.70;;;;;;5095520;28;19916;-27
2023/08/16 08:06:58;;;;;;;;;;;20.20;73.90;;;;;;5095651;28;19908;-28
2023/08/16 08:09:23;;;;;;;;;;;20.20;73.90;;;;;;5095864;28;19914;-30
2023/08/16 08:11:49;;;;;;;;;;;20.30;73.90;;;;;;5095460;28;20003;-27
2023/08/16 08:14:14;;;;;;;;;;;20.40;73.70;;;;;;5095583;28;20417;-28
2023/08/16 08:16:40;;;;;;;;;;;20.40;73.50;;;;;;5095622;28;19916;-26
2023/08/16 08:19:05;;;;;;;;;;;20.50;73.50;;;;;;5095270;28;19908;-28
2023/08/16 08:21:31;;;;;;;;;;;20.50;73.30;;;;;;5095201;28;19916;-26
2023/08/16 08:23:56;;;;;;;;;;;20.50;73.30;;;;;;5095377;28;19912;-30
2023/08/16 08:26:22;;;;;;;;;;;20.60;73.30;;;;;;5095442;28;20009;-25
2023/08/16 08:28:47;;;;;;;;;;;20.60;73.20;;;;;;5095322;28;19908;-34
2023/08/16 08:31:13;;;;;;;;;;;20.60;73.10;;;;;;5095242;28;20291;-27
2023/08/16 08:33:39;;;;;;;;;;;20.70;73.00;;;;;;5095184;28;19908;-28
2023/08/16 08:36:06;;;;;;;;;;;20.70;72.90;;;;;;5095186;28;19912;-32
2023/08/16 08:38:31;;;;;;;;;;;20.70;72.90;;;;;;5095321;28;19914;-28
2023/08/16 08:40:57;;;;;;;;;;;20.70;72.90;;;;;;5094818;28;20431;-29
2023/08/16 08:43:27;;;;;;;;;;;20.80;73.00;;;;;;5094914;28;19908;-28
2023/08/16 08:45:54;;;;;;;;;;;20.80;72.80;;;;;;5095092;28;19974;-31
2023/08/16 08:48:21;;;;;;;;;;;20.90;72.80;;;;;;5094545;28;20290;-30
2023/08/16 08:50:47;;;;;;;;;;;21.00;72.60;;;;;;5094933;28;19995;-27
2023/08/16 08:53:12;;;;;;;;;;;21.00;72.50;;;;;;5094874;28;20354;-29
2023/08/16 08:55:42;;;;;;;;;;;21.10;72.40;;;;;;5094445;28;19969;-31
2023/08/16 08:58:08;;;;;;;;;;;21.20;72.30;;;;;;5094955;28;20128;-26
2023/08/16 09:00:37;;;;;;;;;;;21.20;72.20;;;;;;5094648;28;19923;-27
2023/08/16 09:03:07;;;;;;;;;;;21.30;72.20;;;;;;5094739;28;19912;-27
2023/08/16 09:05:33;;;;;;;;;;;21.30;72.30;;;;;;5093647;28;19916;-27
2023/08/16 09:07:59;;;;;;;;;;;21.40;72.20;;;;;;5094701;28;19931;-32
2023/08/16 09:10:24;;;;;;;;;;;21.50;72.50;;;;;;5094433;28;20368;-32
2023/08/16 09:12:50;;;;;;;;;;;21.40;72.10;;;;;;5094521;28;19934;-27
2023/08/16 09:15:16;;;;;;;;;;;21.50;72.10;;;;;;5094117;28;20394;-29
2023/08/16 09:17:41;;;;;;;;;;;21.60;72.00;;;;;;5094147;28;19920;-30
2023/08/16 09:20:07;;;;;;;;;;;21.70;71.80;;;;;;5093910;28;20340;-31
2023/08/16 09:22:33;;;;;;;;;;;21.80;71.60;;;;;;5094164;28;20007;-33
2023/08/16 09:24:58;;;;;;;;;;;21.90;71.40;;;;;;5094319;28;19915;-31
2023/08/16 09:27:28;;;;;;;;;;;22.00;71.20;;;;;;5094030;28;19915;-37
2023/08/16 09:29:56;;;;;;;;;;;22.10;71.00;;;;;;5094111;28;20372;-28
2023/08/16 09:32:22;;;;;;;;;;;22.10;70.90;;;;;;5094112;28;19957;-33
2023/08/16 09:34:48;;;;;;;;;;;22.10;70.80;;;;;;5093756;28;19908;-32
2023/08/16 09:37:15;;;;;;;;;;;22.10;70.80;;;;;;5094032;28;19923;-29
2023/08/16 09:39:40;;;;;;;;;;;22.10;70.60;;;;;;5094110;28;20313;-27
2023/08/16 09:42:10;;;;;;;;;;;22.20;70.70;;;;;;5093592;28;20054;-29
2023/08/16 09:44:36;;;;;;;;;;;22.20;70.60;;;;;;5093744;28;19915;-27
2023/08/16 09:47:14;;;;;;;;;;;22.30;70.50;;;;;;5093890;28;19936;-26
2023/08/16 09:49:40;;;;;;;;;;;22.40;70.30;;;;;;5093226;28;19915;-29
2023/08/16 09:52:12;;;;;;;;;;;22.50;70.10;;;;;;5093639;28;19908;-27
2023/08/16 09:54:37;;;;;;;;;;;22.50;69.40;;;;;;5093521;28;19915;-27
2023/08/16 09:57:06;;;;;;;;;;;22.60;68.80;;;;;;5093437;28;19939;-29
2023/08/16 09:59:31;;;;;;;;;;;22.60;68.90;;;;;;5093539;28;19909;-27
2023/08/16 10:01:57;;;;;;;;;;;22.60;68.80;;;;;;5093578;28;19912;-28
2023/08/16 10:04:23;;;;;;;;;;;22.70;68.60;;;;;;5093343;28;20057;-27
2023/08/16 10:06:48;;;;;;;;;;;22.80;68.50;;;;;;5093557;28;19908;-27
2023/08/16 10:09:15;;;;;;;;;;;22.80;68.20;;;;;;5093565;28;19909;-27
2023/08/16 10:11:41;;;;;;;;;;;22.90;68.30;;;;;;5093309;28;19955;-27
2023/08/16 10:14:07;;;;;;;;;;;22.90;68.20;;;;;;5093260;28;19912;-31
2023/08/16 10:16:34;;;;;;;;;;;23.00;68.00;;;;;;5091811;28;19915;-29
2023/08/16 10:19:00;;;;;;;;;;;23.10;67.90;;;;;;5092306;28;19908;-31
2023/08/16 10:21:27;;;;;;;;;;;23.20;67.80;;;;;;5093058;28;20283;-29
2023/08/16 10:23:54;;;;;;;;;;;23.20;67.40;;;;;;5093117;28;19916;-27
2023/08/16 10:26:22;;;;;;;;;;;23.30;67.20;;;;;;5093482;28;19908;-29
2023/08/16 10:28:51;;;;;;;;;;;23.40;67.20;;;;;;5093969;28;20274;-29
2023/08/16 10:31:29;;;;;;;;;;;23.50;67.10;;;;;;5093663;28;19912;-30
2023/08/16 10:33:55;;;;;;;;;;;23.60;66.60;;;;;;5093833;28;20367;-28
2023/08/16 10:36:21;;;;;;;;;;;23.60;66.80;;;;;;5093096;28;20336;-27
2023/08/16 10:38:53;;;;;;;;;;;23.60;66.30;;;;;;5092978;28;19964;-29
2023/08/16 10:41:18;;;;;;;;;;;23.70;66.30;;;;;;5092357;28;19954;-36
2023/08/16 10:43:47;;;;;;;;;;;23.70;66.40;;;;;;5092432;28;20302;-33
2023/08/16 10:46:13;;;;;;;;;;;23.70;66.40;;;;;;5092657;28;19909;-39
2023/08/16 10:48:38;;;;;;;;;;;23.80;66.30;;;;;;5092519;28;19916;-33
2023/08/16 10:51:05;;;;;;;;;;;23.90;66.20;;;;;;5092493;28;19908;-34
2023/08/16 10:53:30;;;;;;;;;;;23.80;65.70;;;;;;5092741;28;19961;-35
2023/08/16 10:55:56;;;;;;;;;;;23.90;66.00;;;;;;5092349;28;19915;-38
2023/08/16 10:58:23;;;;;;;;;;;23.90;66.10;;;;;;5092615;28;19957;-31
2023/08/16 11:00:56;;;;;;;;;;;24.00;66.00;;;;;;5092962;28;19912;-35
2023/08/16 11:03:24;;;;;;;;;;;24.10;65.80;;;;;;5092532;28;19915;-35
2023/08/16 11:05:51;;;;;;;;;;;24.20;65.80;;;;;;5091814;28;19943;-42
2023/08/16 11:08:17;;;;;;;;;;;24.30;65.60;;;;;;5092527;28;19980;-36
2023/08/16 11:10:43;;;;;;;;;;;24.30;65.20;;;;;;5092109;28;19912;-35
2023/08/16 11:13:10;;;;;;;;;;;24.40;64.60;;;;;;5092615;28;19908;-32
2023/08/16 11:15:35;;;;;;;;;;;24.40;64.60;;;;;;5091939;28;19909;-34
2023/08/16 11:18:01;;;;;;;;;;;24.40;64.70;;;;;;5092110;28;19915;-43
2023/08/16 11:20:29;;;;;;;;;;;24.50;64.60;;;;;;5091908;28;19927;-40
2023/08/16 11:22:54;;;;;;;;;;;24.50;63.90;;;;;;5092159;28;19908;-31
2023/08/16 11:25:20;;;;;;;;;;;24.60;64.00;;;;;;5091469;28;20015;-32
2023/08/16 11:27:45;;;;;;;;;;;24.70;63.70;;;;;;5091814;28;20011;-41
2023/08/16 11:30:11;;;;;;;;;;;24.80;63.70;;;;;;5091191;28;19908;-33
2023/08/16 11:32:37;;;;;;;;;;;24.80;63.70;;;;;;5091763;28;19923;-31
2023/08/16 11:35:06;;;;;;;;;;;24.90;63.60;;;;;;5091647;28;19951;-28
2023/08/16 11:37:32;;;;;;;;;;;25.10;63.50;;;;;;5091754;28;20356;-27
2023/08/16 11:40:01;;;;;;;;;;;25.10;63.50;;;;;;5091607;28;19957;-29
2023/08/16 11:42:27;;;;;;;;;;;25.20;63.30;;;;;;5091711;28;20401;-31
2023/08/16 11:44:52;;;;;;;;;;;25.30;63.20;;;;;;5091064;28;19912;-33
2023/08/16 11:47:18;;;;;;;;;;;25.40;63.20;;;;;;5091333;28;19952;-28
2023/08/16 11:49:43;;;;;;;;;;;25.40;63.20;;;;;;5091055;28;19919;-27
2023/08/16 11:52:09;;;;;;;;;;;25.40;63.20;;;;;;5091745;28;19908;-39
2023/08/16 11:54:35;;;;;;;;;;;25.40;63.20;;;;;;5091714;28;19915;-31
2023/08/16 11:57:00;;;;;;;;;;;25.40;63.10;;;;;;5091192;28;19969;-29
2023/08/16 11:59:26;;;;;;;;;;;25.40;62.80;;;;;;5091243;28;19912;-33
2023/08/16 12:01:54;;;;;;;;;;;25.30;62.10;;;;;;5091562;28;20352;-31
2023/08/16 12:04:21;;;;;;;;;;;25.30;62.10;;;;;;5091264;28;19916;-32
2023/08/16 12:06:49;;;;;;;;;;;25.30;61.20;;;;;;5090663;28;20115;-30
2023/08/16 12:09:15;;;;;;;;;;;25.40;62.00;;;;;;5091454;28;20380;-31
2023/08/16 12:11:40;;;;;;;;;;;25.50;62.10;;;;;;5091374;28;19912;-31
2023/08/16 12:14:06;;;;;;;;;;;25.60;62.00;;;;;;5091464;28;20259;-32
2023/08/16 12:16:31;;;;;;;;;;;25.70;62.00;;;;;;5090143;28;20010;-33
2023/08/16 12:18:58;;;;;;;;;;;25.70;61.80;;;;;;5090489;28;20307;-28
2023/08/16 12:21:23;;;;;;;;;;;25.70;61.80;;;;;;5091434;28;19916;-31
2023/08/16 12:23:49;;;;;;;;;;;25.70;61.90;;;;;;5091316;28;19919;-29
2023/08/16 12:26:14;;;;;;;;;;;25.60;62.00;;;;;;5091514;28;20360;-27
2023/08/16 12:28:40;;;;;;;;;;;25.60;62.00;;;;;;5091166;28;19981;-28
2023/08/16 12:31:06;;;;;;;;;;;25.50;61.90;;;;;;5091595;28;19919;-26
2023/08/16 12:33:31;;;;;;;;;;;25.60;61.80;;;;;;5091220;28;20419;-37
2023/08/16 12:35:58;;;;;;;;;;;25.60;61.90;;;;;;5091095;28;19919;-28
2023/08/16 12:38:23;;;;;;;;;;;25.70;61.10;;;;;;5091331;28;20008;-27
2023/08/16 12:40:49;;;;;;;;;;;25.80;61.70;;;;;;5091636;28;20408;-29
2023/08/16 12:43:15;;;;;;;;;;;26.00;60.60;;;;;;5094883;28;19912;-28
2023/08/16 12:45:40;;;;;;;;;;;26.10;60.20;;;;;;5095071;28;19999;-30
2023/08/16 12:48:06;;;;;;;;;;;26.10;60.30;;;;;;5094649;28;19982;-29
2023/08/16 12:50:31;;;;;;;;;;;26.20;60.40;;;;;;5094593;28;19912;-31
2023/08/16 12:53:00;;;;;;;;;;;26.30;60.40;;;;;;5094674;28;19912;-28
2023/08/16 12:55:25;;;;;;;;;;;26.40;60.00;;;;;;5094331;28;19927;-29
2023/08/16 12:57:51;;;;;;;;;;;26.50;60.00;;;;;;5094486;28;19912;-32
2023/08/16 13:00:16;;;;;;;;;;;26.50;59.80;;;;;;5094308;28;19916;-28
2023/08/16 13:02:42;;;;;;;;;;;26.40;58.50;;;;;;5094322;28;19911;-28
2023/08/16 13:05:07;;;;;;;;;;;26.40;58.00;;;;;;5094188;28;20336;-37
2023/08/16 13:07:36;;;;;;;;;;;26.20;58.70;;;;;;5094740;28;19923;-28
2023/08/16 13:10:04;;;;;;;;;;;26.10;58.90;;;;;;5094374;28;20002;-28
2023/08/16 13:12:33;;;;;;;;;;;26.10;59.00;;;;;;5094617;28;19912;-29
2023/08/16 13:14:59;;;;;;;;;;;26.10;59.20;;;;;;5094343;28;19912;-29
2023/08/16 13:17:25;;;;;;;;;;;26.00;59.10;;;;;;5092860;28;19972;-28
2023/08/16 13:19:51;;;;;;;;;;;26.10;59.00;;;;;;5093953;28;19919;-29
2023/08/16 13:22:16;;;;;;;;;;;26.10;59.00;;;;;;5094016;28;19919;-28
2023/08/16 13:24:42;;;;;;;;;;;26.10;58.70;;;;;;5094017;28;20010;-28
2023/08/16 13:27:07;;;;;;;;;;;26.10;58.70;;;;;;5092177;28;20347;-27
2023/08/16 13:29:33;;;;;;;;;;;26.30;58.70;;;;;;5093876;28;19912;-28
2023/08/16 13:31:58;;;;;;;;;;;26.40;58.50;;;;;;5093687;28;20555;-28
2023/08/16 13:34:24;;;;;;;;;;;26.30;58.10;;;;;;5093779;28;20390;-31
2023/08/16 13:36:49;;;;;;;;;;;26.30;59.00;;;;;;5093625;28;19912;-30
2023/08/16 13:39:15;;;;;;;;;;;26.30;58.50;;;;;;5093644;28;19978;-28
2023/08/16 13:41:41;;;;;;;;;;;26.30;58.70;;;;;;5093407;28;19916;-29
2023/08/16 13:44:06;;;;;;;;;;;26.30;58.50;;;;;;5093636;28;19978;-29
2023/08/16 13:46:32;;;;;;;;;;;26.40;58.30;;;;;;5093396;28;19919;-30
2023/08/16 13:48:58;;;;;;;;;;;26.40;58.50;;;;;;5093700;28;19912;-28
2023/08/16 13:51:23;;;;;;;;;;;26.40;57.90;;;;;;5093279;28;19923;-29
2023/08/16 13:53:49;;;;;;;;;;;26.40;57.90;;;;;;5093466;28;20380;-31
2023/08/16 13:56:14;;;;;;;;;;;26.50;57.70;;;;;;5093668;28;19912;-30
2023/08/16 13:58:40;;;;;;;;;;;26.50;57.50;;;;;;5093651;28;19958;-27
2023/08/16 14:01:05;;;;;;;;;;;26.50;57.40;;;;;;5093498;28;19924;-27
2023/08/16 14:03:31;;;;;;;;;;;26.50;57.60;;;;;;5093581;28;20424;-32
2023/08/16 14:05:57;;;;;;;;;;;26.60;57.40;;;;;;5093244;28;20061;-28
2023/08/16 14:08:23;;;;;;;;;;;26.50;57.50;;;;;;5093329;28;19912;-33